sensor_id;sensor_type;location;lat;lon;timestamp;temperature;humidity
16273;DHT22;8244;50.044;9.006;2023-03-23T00:04:05;14.20;95.00
16273;DHT22;8244;50.044;9.006;2023-03-23T00:09:08;14.30;94.90
16273;DHT22;8244;50.044;9.006;2023-03-23T00:14:11;14.30;95.10
16273;DHT22;8244;50.044;9.006;2023-03-23T00:19:14;14.30;95.20
16273;DHT22;8244;50.044;9.006;2023-03-23T00:24:17;14.30;95.30
16273;DHT22;8244;50.044;9.006;2023-03-23T00:29:22;14.30;95.40
16273;DHT22;8244;50.044;9.006;2023-03-23T00:34:23;14.30;95.50
16273;DHT22;8244;50.044;9.006;2023-03-23T00:39:27;14.30;95.70
16273;DHT22;8244;50.044;9.006;2023-03-23T00:44:32;14.30;95.90
16273;DHT22;8244;50.044;9.006;2023-03-23T00:49:35;14.20;96.00
16273;DHT22;8244;50.044;9.006;2023-03-23T00:54:37;14.20;96.00
16273;DHT22;8244;50.044;9.006;2023-03-23T00:59:40;14.20;96.30
16273;DHT22;8244;50.044;9.006;2023-03-23T01:04:42;14.20;96.20
16273;DHT22;8244;50.044;9.006;2023-03-23T01:09:45;14.20;96.40
16273;DHT22;8244;50.044;9.006;2023-03-23T01:14:48;14.10;96.50
16273;DHT22;8244;50.044;9.006;2023-03-23T01:19:49;14.10;96.50
16273;DHT22;8244;50.044;9.006;2023-03-23T01:24:51;14.20;96.70
16273;DHT22;8244;50.044;9.006;2023-03-23T01:29:54;14.20;96.70
16273;DHT22;8244;50.044;9.006;2023-03-23T01:34:56;14.20;96.70
16273;DHT22;8244;50.044;9.006;2023-03-23T01:39:58;14.20;96.90
16273;DHT22;8244;50.044;9.006;2023-03-23T01:45:30;14.20;96.50
16273;DHT22;8244;50.044;9.006;2023-03-23T01:50:36;14.20;96.20
16273;DHT22;8244;50.044;9.006;2023-03-23T01:55:41;14.20;96.00
16273;DHT22;8244;50.044;9.006;2023-03-23T02:00:46;14.30;95.60
16273;DHT22;8244;50.044;9.006;2023-03-23T02:05:48;14.30;95.30
16273;DHT22;8244;50.044;9.006;2023-03-23T02:10:50;14.40;95.00
16273;DHT22;8244;50.044;9.006;2023-03-23T02:16:00;14.40;94.80
16273;DHT22;8244;50.044;9.006;2023-03-23T02:21:26;14.50;94.60
16273;DHT22;8244;50.044;9.006;2023-03-23T02:26:42;14.50;94.80
16273;DHT22;8244;50.044;9.006;2023-03-23T02:32:03;14.40;95.50
16273;DHT22;8244;50.044;9.006;2023-03-23T02:37:11;14.40;95.80
16273;DHT22;8244;50.044;9.006;2023-03-23T02:42:18;14.40;95.50
16273;DHT22;8244;50.044;9.006;2023-03-23T02:47:24;14.30;95.80
16273;DHT22;8244;50.044;9.006;2023-03-23T02:52:29;14.30;95.90
16273;DHT22;8244;50.044;9.006;2023-03-23T02:57:31;14.30;95.80
16273;DHT22;8244;50.044;9.006;2023-03-23T03:02:35;14.30;95.90
16273;DHT22;8244;50.044;9.006;2023-03-23T03:08:02;14.30;95.90
16273;DHT22;8244;50.044;9.006;2023-03-23T03:13:11;14.30;96.20
16273;DHT22;8244;50.044;9.006;2023-03-23T03:18:18;14.30;97.10
16273;DHT22;8244;50.044;9.006;2023-03-23T03:23:24;14.20;98.40
16273;DHT22;8244;50.044;9.006;2023-03-23T03:28:27;14.10;99.70
16273;DHT22;8244;50.044;9.006;2023-03-23T03:33:30;13.90;99.90
16273;DHT22;8244;50.044;9.006;2023-03-23T03:38:42;13.80;99.90
16273;DHT22;8244;50.044;9.006;2023-03-23T03:43:44;13.70;99.90
16273;DHT22;8244;50.044;9.006;2023-03-23T03:48:46;13.60;99.90
16273;DHT22;8244;50.044;9.006;2023-03-23T03:53:49;13.50;99.90
16273;DHT22;8244;50.044;9.006;2023-03-23T03:58:51;13.50;99.90
16273;DHT22;8244;50.044;9.006;2023-03-23T04:03:53;13.40;99.90
16273;DHT22;8244;50.044;9.006;2023-03-23T04:08:57;13.30;99.90
16273;DHT22;8244;50.044;9.006;2023-03-23T04:13:59;13.20;99.90
16273;DHT22;8244;50.044;9.006;2023-03-23T04:19:01;13.10;99.90
16273;DHT22;8244;50.044;9.006;2023-03-23T04:24:04;13.00;99.90
16273;DHT22;8244;50.044;9.006;2023-03-23T04:29:06;13.00;99.90
16273;DHT22;8244;50.044;9.006;2023-03-23T04:34:08;12.90;99.90
16273;DHT22;8244;50.044;9.006;2023-03-23T04:39:15;12.80;99.90
16273;DHT22;8244;50.044;9.006;2023-03-23T04:44:16;12.70;99.90
16273;DHT22;8244;50.044;9.006;2023-03-23T04:49:21;12.60;99.90
16273;DHT22;8244;50.044;9.006;2023-03-23T04:54:24;12.50;99.90
16273;DHT22;8244;50.044;9.006;2023-03-23T04:59:29;12.50;99.90
16273;DHT22;8244;50.044;9.006;2023-03-23T05:04:31;12.50;99.90
16273;DHT22;8244;50.044;9.006;2023-03-23T05:09:35;12.40;99.90
16273;DHT22;8244;50.044;9.006;2023-03-23T05:14:40;12.40;99.90
16273;DHT22;8244;50.044;9.006;2023-03-23T05:19:42;12.40;99.90
16273;DHT22;8244;50.044;9.006;2023-03-23T05:24:47;12.40;99.90
16273;DHT22;8244;50.044;9.006;2023-03-23T05:29:51;12.40;99.90
16273;DHT22;8244;50.044;9.006;2023-03-23T05:34:53;12.40;99.90
16273;DHT22;8244;50.044;9.006;2023-03-23T05:39:56;12.50;99.90
16273;DHT22;8244;50.044;9.006;2023-03-23T05:44:59;12.50;99.90
16273;DHT22;8244;50.044;9.006;2023-03-23T05:50:00;12.60;99.90
16273;DHT22;8244;50.044;9.006;2023-03-23T05:55:05;12.60;99.90
16273;DHT22;8244;50.044;9.006;2023-03-23T06:00:09;12.70;99.90
16273;DHT22;8244;50.044;9.006;2023-03-23T06:05:20;12.70;99.90
16273;DHT22;8244;50.044;9.006;2023-03-23T06:10:24;12.70;99.90
16273;DHT22;8244;50.044;9.006;2023-03-23T06:15:26;12.80;99.90
16273;DHT22;8244;50.044;9.006;2023-03-23T06:20:29;12.90;99.90
16273;DHT22;8244;50.044;9.006;2023-03-23T06:25:32;12.90;99.90
16273;DHT22;8244;50.044;9.006;2023-03-23T06:30:35;12.80;99.90
16273;DHT22;8244;50.044;9.006;2023-03-23T06:35:37;12.80;99.90
16273;DHT22;8244;50.044;9.006;2023-03-23T06:40:40;12.80;99.90
16273;DHT22;8244;50.044;9.006;2023-03-23T06:45:42;12.80;99.90
16273;DHT22;8244;50.044;9.006;2023-03-23T06:50:44;12.70;99.90
16273;DHT22;8244;50.044;9.006;2023-03-23T06:55:47;12.70;99.90
16273;DHT22;8244;50.044;9.006;2023-03-23T07:00:53;12.60;99.90
16273;DHT22;8244;50.044;9.006;2023-03-23T07:05:55;12.60;99.90
16273;DHT22;8244;50.044;9.006;2023-03-23T07:10:58;12.60;99.90
16273;DHT22;8244;50.044;9.006;2023-03-23T07:16:00;12.60;99.90
16273;DHT22;8244;50.044;9.006;2023-03-23T07:21:02;12.60;99.90
16273;DHT22;8244;50.044;9.006;2023-03-23T07:26:05;12.60;99.90
16273;DHT22;8244;50.044;9.006;2023-03-23T07:31:08;12.60;99.90
16273;DHT22;8244;50.044;9.006;2023-03-23T07:36:10;12.70;99.90
16273;DHT22;8244;50.044;9.006;2023-03-23T07:41:14;12.70;99.90
16273;DHT22;8244;50.044;9.006;2023-03-23T07:46:15;12.90;99.90
16273;DHT22;8244;50.044;9.006;2023-03-23T07:51:17;12.90;99.90
16273;DHT22;8244;50.044;9.006;2023-03-23T07:56:20;13.00;99.90
16273;DHT22;8244;50.044;9.006;2023-03-23T08:01:23;13.00;99.90
16273;DHT22;8244;50.044;9.006;2023-03-23T08:06:24;13.00;99.90
16273;DHT22;8244;50.044;9.006;2023-03-23T08:11:27;13.00;99.90
16273;DHT22;8244;50.044;9.006;2023-03-23T08:16:29;13.10;99.90
16273;DHT22;8244;50.044;9.006;2023-03-23T08:21:31;13.10;99.90
16273;DHT22;8244;50.044;9.006;2023-03-23T08:26:34;13.10;99.90
16273;DHT22;8244;50.044;9.006;2023-03-23T08:31:38;13.10;99.90
16273;DHT22;8244;50.044;9.006;2023-03-23T08:36:40;13.10;99.90
16273;DHT22;8244;50.044;9.006;2023-03-23T08:41:45;13.10;99.90
16273;DHT22;8244;50.044;9.006;2023-03-23T08:46:47;13.10;99.90
16273;DHT22;8244;50.044;9.006;2023-03-23T08:51:50;13.10;99.90
16273;DHT22;8244;50.044;9.006;2023-03-23T08:56:53;13.10;99.90
16273;DHT22;8244;50.044;9.006;2023-03-23T09:01:55;13.10;99.90
16273;DHT22;8244;50.044;9.006;2023-03-23T09:06:56;13.10;99.90
16273;DHT22;8244;50.044;9.006;2023-03-23T09:11:59;13.10;99.90
16273;DHT22;8244;50.044;9.006;2023-03-23T09:17:01;13.20;99.90
16273;DHT22;8244;50.044;9.006;2023-03-23T09:22:04;13.20;99.90
16273;DHT22;8244;50.044;9.006;2023-03-23T09:27:07;13.20;99.90
16273;DHT22;8244;50.044;9.006;2023-03-23T09:32:08;13.30;99.90
16273;DHT22;8244;50.044;9.006;2023-03-23T09:37:10;13.30;99.90
16273;DHT22;8244;50.044;9.006;2023-03-23T09:42:37;13.40;99.90
16273;DHT22;8244;50.044;9.006;2023-03-23T09:47:51;13.50;99.90
16273;DHT22;8244;50.044;9.006;2023-03-23T09:52:58;13.70;99.90
16273;DHT22;8244;50.044;9.006;2023-03-23T09:58:10;13.70;99.90
16273;DHT22;8244;50.044;9.006;2023-03-23T10:03:14;13.90;99.90
16273;DHT22;8244;50.044;9.006;2023-03-23T10:08:18;14.20;99.90
16273;DHT22;8244;50.044;9.006;2023-03-23T10:13:43;14.50;99.90
16273;DHT22;8244;50.044;9.006;2023-03-23T10:18:54;14.80;99.90
16273;DHT22;8244;50.044;9.006;2023-03-23T10:24:00;15.00;99.90
16273;DHT22;8244;50.044;9.006;2023-03-23T10:29:14;15.20;99.90
16273;DHT22;8244;50.044;9.006;2023-03-23T10:34:22;15.30;99.90
16273;DHT22;8244;50.044;9.006;2023-03-23T10:39:29;15.30;99.90
16273;DHT22;8244;50.044;9.006;2023-03-23T10:44:34;15.40;99.90
16273;DHT22;8244;50.044;9.006;2023-03-23T10:49:40;15.40;99.90
16273;DHT22;8244;50.044;9.006;2023-03-23T10:54:49;15.40;99.90
16273;DHT22;8244;50.044;9.006;2023-03-23T11:00:00;15.30;99.90
16273;DHT22;8244;50.044;9.006;2023-03-23T11:05:15;15.20;99.90
16273;DHT22;8244;50.044;9.006;2023-03-23T11:10:22;15.30;99.90
16273;DHT22;8244;50.044;9.006;2023-03-23T11:15:31;15.20;99.90
16273;DHT22;8244;50.044;9.006;2023-03-23T11:20:36;15.30;99.90
16273;DHT22;8244;50.044;9.006;2023-03-23T11:25:54;15.60;99.90
16273;DHT22;8244;50.044;9.006;2023-03-23T11:30:59;15.80;99.90
16273;DHT22;8244;50.044;9.006;2023-03-23T11:36:03;15.90;99.90
16273;DHT22;8244;50.044;9.006;2023-03-23T11:41:10;15.90;99.90
16273;DHT22;8244;50.044;9.006;2023-03-23T11:46:20;16.00;99.90
16273;DHT22;8244;50.044;9.006;2023-03-23T11:51:29;16.10;99.90
16273;DHT22;8244;50.044;9.006;2023-03-23T11:56:34;16.20;99.90
16273;DHT22;8244;50.044;9.006;2023-03-23T12:01:51;16.60;99.90
16273;DHT22;8244;50.044;9.006;2023-03-23T12:07:00;17.00;99.90
16273;DHT22;8244;50.044;9.006;2023-03-23T12:12:10;17.20;99.90
16273;DHT22;8244;50.044;9.006;2023-03-23T12:17:20;17.20;99.90
16273;DHT22;8244;50.044;9.006;2023-03-23T12:22:38;17.10;99.90
16273;DHT22;8244;50.044;9.006;2023-03-23T12:27:46;17.00;99.90
16273;DHT22;8244;50.044;9.006;2023-03-23T12:32:58;16.80;99.90
16273;DHT22;8244;50.044;9.006;2023-03-23T12:38:12;16.60;99.90
16273;DHT22;8244;50.044;9.006;2023-03-23T12:43:27;16.50;99.90
16273;DHT22;8244;50.044;9.006;2023-03-23T12:48:34;16.50;99.90
16273;DHT22;8244;50.044;9.006;2023-03-23T12:53:43;16.50;99.90
16273;DHT22;8244;50.044;9.006;2023-03-23T12:58:48;16.70;99.90
16273;DHT22;8244;50.044;9.006;2023-03-23T13:03:57;17.10;99.90
16273;DHT22;8244;50.044;9.006;2023-03-23T13:09:04;17.30;99.90
16273;DHT22;8244;50.044;9.006;2023-03-23T13:14:20;17.40;99.90
16273;DHT22;8244;50.044;9.006;2023-03-23T13:19:28;17.50;99.90
16273;DHT22;8244;50.044;9.006;2023-03-23T13:24:35;17.70;99.90
16273;DHT22;8244;50.044;9.006;2023-03-23T13:29:44;17.80;99.90
16273;DHT22;8244;50.044;9.006;2023-03-23T13:34:48;18.00;99.90
16273;DHT22;8244;50.044;9.006;2023-03-23T13:39:52;18.20;99.90
16273;DHT22;8244;50.044;9.006;2023-03-23T13:45:19;18.20;99.90
16273;DHT22;8244;50.044;9.006;2023-03-23T13:50:28;18.10;99.90
16273;DHT22;8244;50.044;9.006;2023-03-23T13:55:40;18.30;99.90
16273;DHT22;8244;50.044;9.006;2023-03-23T14:00:47;18.50;99.90
16273;DHT22;8244;50.044;9.006;2023-03-23T14:06:01;18.30;99.90
16273;DHT22;8244;50.044;9.006;2023-03-23T14:11:12;18.10;99.90
16273;DHT22;8244;50.044;9.006;2023-03-23T14:16:17;17.90;99.90
16273;DHT22;8244;50.044;9.006;2023-03-23T14:21:31;17.80;99.90
16273;DHT22;8244;50.044;9.006;2023-03-23T14:26:34;17.90;99.90
16273;DHT22;8244;50.044;9.006;2023-03-23T14:31:37;17.80;99.90
16273;DHT22;8244;50.044;9.006;2023-03-23T14:36:41;17.80;99.90
16273;DHT22;8244;50.044;9.006;2023-03-23T14:41:44;17.60;99.90
16273;DHT22;8244;50.044;9.006;2023-03-23T14:46:46;17.40;99.90
16273;DHT22;8244;50.044;9.006;2023-03-23T14:51:52;17.00;99.90
16273;DHT22;8244;50.044;9.006;2023-03-23T14:56:55;16.90;99.90
16273;DHT22;8244;50.044;9.006;2023-03-23T15:01:57;16.90;99.90
16273;DHT22;8244;50.044;9.006;2023-03-23T15:07:05;16.80;99.90
16273;DHT22;8244;50.044;9.006;2023-03-23T15:12:13;16.70;99.90
16273;DHT22;8244;50.044;9.006;2023-03-23T15:17:22;16.60;99.90
16273;DHT22;8244;50.044;9.006;2023-03-23T15:22:29;16.40;99.90
16273;DHT22;8244;50.044;9.006;2023-03-23T15:27:33;16.40;99.90
16273;DHT22;8244;50.044;9.006;2023-03-23T15:32:38;16.30;99.90
16273;DHT22;8244;50.044;9.006;2023-03-23T15:37:44;16.20;99.90
16273;DHT22;8244;50.044;9.006;2023-03-23T15:42:46;16.20;99.90
16273;DHT22;8244;50.044;9.006;2023-03-23T15:47:49;16.20;99.90
16273;DHT22;8244;50.044;9.006;2023-03-23T15:52:52;16.20;99.90
16273;DHT22;8244;50.044;9.006;2023-03-23T15:57:56;16.20;99.90
16273;DHT22;8244;50.044;9.006;2023-03-23T16:03:00;16.00;99.90
16273;DHT22;8244;50.044;9.006;2023-03-23T16:08:04;15.90;99.90
16273;DHT22;8244;50.044;9.006;2023-03-23T16:13:05;15.80;99.90
16273;DHT22;8244;50.044;9.006;2023-03-23T16:18:14;15.80;99.90
16273;DHT22;8244;50.044;9.006;2023-03-23T16:23:18;15.70;99.90
16273;DHT22;8244;50.044;9.006;2023-03-23T16:28:20;15.70;99.90
16273;DHT22;8244;50.044;9.006;2023-03-23T16:33:22;15.60;99.90
16273;DHT22;8244;50.044;9.006;2023-03-23T16:38:25;15.50;99.90
16273;DHT22;8244;50.044;9.006;2023-03-23T16:43:27;15.50;99.90
16273;DHT22;8244;50.044;9.006;2023-03-23T16:48:28;15.40;99.90
16273;DHT22;8244;50.044;9.006;2023-03-23T16:53:31;15.40;99.90
16273;DHT22;8244;50.044;9.006;2023-03-23T16:58:33;15.40;99.90
16273;DHT22;8244;50.044;9.006;2023-03-23T17:03:35;15.30;99.90
16273;DHT22;8244;50.044;9.006;2023-03-23T17:08:38;15.20;99.90
16273;DHT22;8244;50.044;9.006;2023-03-23T17:13:41;15.10;99.90
16273;DHT22;8244;50.044;9.006;2023-03-23T17:18:43;15.00;99.90
16273;DHT22;8244;50.044;9.006;2023-03-23T17:23:46;15.00;99.90
16273;DHT22;8244;50.044;9.006;2023-03-23T17:28:47;14.90;99.90
16273;DHT22;8244;50.044;9.006;2023-03-23T17:33:49;14.70;99.90
16273;DHT22;8244;50.044;9.006;2023-03-23T17:38:53;14.60;99.90
16273;DHT22;8244;50.044;9.006;2023-03-23T17:43:55;14.50;99.90
16273;DHT22;8244;50.044;9.006;2023-03-23T17:48:57;14.40;99.90
16273;DHT22;8244;50.044;9.006;2023-03-23T17:54:00;14.30;99.90
16273;DHT22;8244;50.044;9.006;2023-03-23T17:59:01;14.20;99.90
16273;DHT22;8244;50.044;9.006;2023-03-23T18:04:03;14.20;99.90
16273;DHT22;8244;50.044;9.006;2023-03-23T18:09:07;14.20;99.90
16273;DHT22;8244;50.044;9.006;2023-03-23T18:14:08;14.10;99.90
16273;DHT22;8244;50.044;9.006;2023-03-23T18:19:10;14.00;99.90
16273;DHT22;8244;50.044;9.006;2023-03-23T18:24:13;14.00;99.90
16273;DHT22;8244;50.044;9.006;2023-03-23T18:29:15;13.90;99.90
16273;DHT22;8244;50.044;9.006;2023-03-23T18:34:16;13.90;99.90
16273;DHT22;8244;50.044;9.006;2023-03-23T18:39:19;13.80;99.90
16273;DHT22;8244;50.044;9.006;2023-03-23T18:44:21;13.80;99.90
16273;DHT22;8244;50.044;9.006;2023-03-23T18:49:23;13.70;99.90
16273;DHT22;8244;50.044;9.006;2023-03-23T18:54:26;13.70;99.90
16273;DHT22;8244;50.044;9.006;2023-03-23T18:59:28;13.70;99.90
16273;DHT22;8244;50.044;9.006;2023-03-23T19:04:33;13.60;99.90
16273;DHT22;8244;50.044;9.006;2023-03-23T19:09:36;13.60;99.90
16273;DHT22;8244;50.044;9.006;2023-03-23T19:14:39;13.60;99.90
16273;DHT22;8244;50.044;9.006;2023-03-23T19:19:41;13.60;99.90
16273;DHT22;8244;50.044;9.006;2023-03-23T19:24:44;13.60;99.90
16273;DHT22;8244;50.044;9.006;2023-03-23T19:29:45;13.50;99.90
16273;DHT22;8244;50.044;9.006;2023-03-23T19:34:47;13.50;99.90
16273;DHT22;8244;50.044;9.006;2023-03-23T19:39:50;13.50;99.90
16273;DHT22;8244;50.044;9.006;2023-03-23T19:44:52;13.50;99.90
16273;DHT22;8244;50.044;9.006;2023-03-23T19:49:53;13.50;99.90
16273;DHT22;8244;50.044;9.006;2023-03-23T19:54:57;13.50;99.90
16273;DHT22;8244;50.044;9.006;2023-03-23T19:59:58;13.50;99.90
16273;DHT22;8244;50.044;9.006;2023-03-23T20:05:00;13.50;99.90
16273;DHT22;8244;50.044;9.006;2023-03-23T20:10:05;13.50;99.90
16273;DHT22;8244;50.044;9.006;2023-03-23T20:15:07;13.40;99.90
16273;DHT22;8244;50.044;9.006;2023-03-23T20:20:09;13.40;99.90
16273;DHT22;8244;50.044;9.006;2023-03-23T20:25:13;13.30;99.90
16273;DHT22;8244;50.044;9.006;2023-03-23T20:30:14;13.20;99.90
16273;DHT22;8244;50.044;9.006;2023-03-23T20:35:17;13.20;99.90
16273;DHT22;8244;50.044;9.006;2023-03-23T20:40:23;13.20;99.90
16273;DHT22;8244;50.044;9.006;2023-03-23T20:45:24;13.10;99.90
16273;DHT22;8244;50.044;9.006;2023-03-23T20:50:26;13.10;99.90
16273;DHT22;8244;50.044;9.006;2023-03-23T20:55:30;13.00;99.90
16273;DHT22;8244;50.044;9.006;2023-03-23T21:00:32;13.00;99.90
16273;DHT22;8244;50.044;9.006;2023-03-23T21:05:34;13.00;99.90
16273;DHT22;8244;50.044;9.006;2023-03-23T21:10:37;12.90;99.90
16273;DHT22;8244;50.044;9.006;2023-03-23T21:15:39;12.90;99.90
16273;DHT22;8244;50.044;9.006;2023-03-23T21:20:41;12.80;99.90
16273;DHT22;8244;50.044;9.006;2023-03-23T21:25:45;12.80;99.90
16273;DHT22;8244;50.044;9.006;2023-03-23T21:30:48;12.80;99.90
16273;DHT22;8244;50.044;9.006;2023-03-23T21:35:51;12.70;99.90
16273;DHT22;8244;50.044;9.006;2023-03-23T21:40:56;12.70;99.90
16273;DHT22;8244;50.044;9.006;2023-03-23T21:45:59;12.70;99.90
16273;DHT22;8244;50.044;9.006;2023-03-23T21:51:04;12.70;99.90
16273;DHT22;8244;50.044;9.006;2023-03-23T21:56:09;12.70;99.90
16273;DHT22;8244;50.044;9.006;2023-03-23T22:01:11;12.70;99.90
16273;DHT22;8244;50.044;9.006;2023-03-23T22:06:17;12.70;99.90
16273;DHT22;8244;50.044;9.006;2023-03-23T22:11:23;12.70;99.90
16273;DHT22;8244;50.044;9.006;2023-03-23T22:16:25;12.70;99.90
16273;DHT22;8244;50.044;9.006;2023-03-23T22:21:27;12.70;99.90
16273;DHT22;8244;50.044;9.006;2023-03-23T22:26:31;12.70;99.90
16273;DHT22;8244;50.044;9.006;2023-03-23T22:31:36;12.70;99.90
16273;DHT22;8244;50.044;9.006;2023-03-23T22:36:39;12.60;99.90
16273;DHT22;8244;50.044;9.006;2023-03-23T22:41:43;12.70;99.90
16273;DHT22;8244;50.044;9.006;2023-03-23T22:46:45;12.70;99.90
16273;DHT22;8244;50.044;9.006;2023-03-23T22:51:46;12.70;99.90
16273;DHT22;8244;50.044;9.006;2023-03-23T22:56:50;12.70;99.90
16273;DHT22;8244;50.044;9.006;2023-03-23T23:01:52;12.70;99.90
16273;DHT22;8244;50.044;9.006;2023-03-23T23:06:53;12.80;99.90
16273;DHT22;8244;50.044;9.006;2023-03-23T23:11:56;13.00;99.90
16273;DHT22;8244;50.044;9.006;2023-03-23T23:16:58;13.20;99.90
16273;DHT22;8244;50.044;9.006;2023-03-23T23:22:00;13.40;99.90
16273;DHT22;8244;50.044;9.006;2023-03-23T23:27:03;13.40;99.90
16273;DHT22;8244;50.044;9.006;2023-03-23T23:32:05;13.40;99.90
16273;DHT22;8244;50.044;9.006;2023-03-23T23:37:07;13.50;99.90
16273;DHT22;8244;50.044;9.006;2023-03-23T23:42:10;13.50;99.90
16273;DHT22;8244;50.044;9.006;2023-03-23T23:47:13;13.40;99.90
16273;DHT22;8244;50.044;9.006;2023-03-23T23:52:14;13.30;99.90
16273;DHT22;8244;50.044;9.006;2023-03-23T23:57:18;13.20;99.90
